Time;durP1;ratioP1;P1;durP2;ratioP2;P2;SDS_P1;SDS_P2;PMS_P1;PMS_P2;Temp;Humidity;BMP_temperature;BMP_pressure;BME280_temperature;BME280_humidity;BME280_pressure;Samples;Min_cycle;Max_cycle;Signal;HPM_P1;HPM_P2
2021/04/01 04:00:16;;;;;;;10.30;8.20;;;11.90;99.90;;;;;;6077443;23;20542;31
2021/04/01 04:02:54;;;;;;;9.67;8.60;;;11.80;99.90;;;;;;4996353;28;20501;-71
2021/04/01 04:05:33;;;;;;;13.83;8.70;;;11.70;99.90;;;;;;4999423;28;20931;-72
2021/04/01 04:13:21;;;;;;;11.13;8.73;;;11.30;99.90;;;;;;4976254;28;20446;-63
2021/04/01 04:15:47;;;;;;;12.77;10.07;;;11.20;99.90;;;;;;4978393;28;20439;-62
2021/04/01 04:18:14;;;;;;;14.63;8.17;;;11.10;99.90;;;;;;4981588;28;20454;-62
2021/04/01 04:20:40;;;;;;;12.20;8.80;;;11.00;99.90;;;;;;5001115;28;20453;-62
2021/04/01 04:23:09;;;;;;;15.00;9.33;;;11.00;99.90;;;;;;4999352;28;20473;-63
2021/04/01 04:25:36;;;;;;;9.63;7.97;;;11.00;99.90;;;;;;4998379;28;20904;-64
2021/04/01 04:30:46;;;;;;;11.70;7.63;;;11.00;99.90;;;;;;4997762;28;20461;-61
2021/04/01 04:33:13;;;;;;;9.60;8.50;;;11.10;99.90;;;;;;4998526;28;20461;-63
2021/04/01 04:35:40;;;;;;;12.33;7.70;;;11.20;99.90;;;;;;4997845;28;20508;-63
2021/04/01 04:38:06;;;;;;;16.43;7.93;;;11.20;99.90;;;;;;4997668;28;20460;-63
2021/04/01 04:40:32;;;;;;;14.43;8.20;;;11.30;99.90;;;;;;4997528;28;20956;-63
2021/04/01 04:42:59;;;;;;;10.03;8.17;;;11.30;99.90;;;;;;4997572;28;20454;-63
2021/04/01 04:45:25;;;;;;;15.83;9.33;;;11.40;99.90;;;;;;4997489;28;20511;-63
2021/04/01 04:47:51;;;;;;;15.00;8.43;;;11.40;99.90;;;;;;4997206;28;20798;-63
2021/04/01 04:50:18;;;;;;;11.70;8.10;;;11.40;99.90;;;;;;4997389;28;20481;-63
2021/04/01 04:52:45;;;;;;;12.07;8.53;;;11.30;99.90;;;;;;4997138;28;20968;-63
2021/04/01 04:55:12;;;;;;;11.90;9.07;;;11.30;99.90;;;;;;4997696;28;20461;-63
2021/04/01 04:57:44;;;;;;;11.23;8.93;;;11.20;99.90;;;;;;4997411;28;20458;-64
2021/04/01 05:00:38;;;;;;;9.70;8.20;;;11.20;99.90;;;;;;4997282;28;20627;-62
2021/04/01 05:05:50;;;;;;;9.37;7.63;;;11.30;99.90;;;;;;4996782;28;20558;-63
2021/04/01 05:08:17;;;;;;;12.53;8.57;;;11.20;99.90;;;;;;4996234;28;20473;-63
2021/04/01 05:10:43;;;;;;;9.20;7.43;;;11.30;99.90;;;;;;4996539;28;20462;-63
2021/04/01 05:13:10;;;;;;;13.50;8.90;;;11.40;99.90;;;;;;4996454;28;20508;-63
2021/04/01 05:15:42;;;;;;;12.63;8.70;;;11.40;99.90;;;;;;4996257;28;20453;-62
2021/04/01 05:18:17;;;;;;;14.03;8.60;;;11.30;99.90;;;;;;4996287;28;20457;-63
2021/04/01 05:20:46;;;;;;;9.53;8.60;;;11.30;99.90;;;;;;4998201;28;20520;-63
2021/04/01 05:23:22;;;;;;;13.07;8.50;;;11.30;99.90;;;;;;4996414;28;20461;-63
2021/04/01 05:25:49;;;;;;;11.40;8.50;;;11.30;99.90;;;;;;4995840;28;20434;-62
2021/04/01 05:28:22;;;;;;;13.57;8.07;;;11.30;99.90;;;;;;4996032;28;20509;-63
2021/04/01 05:30:49;;;;;;;15.80;8.90;;;11.40;99.90;;;;;;4995722;28;20469;-62
2021/04/01 05:33:16;;;;;;;9.03;8.07;;;11.50;99.90;;;;;;4996279;28;20454;-61
2021/04/01 05:35:42;;;;;;;14.67;7.80;;;11.60;99.90;;;;;;4995729;28;20849;-63
2021/04/01 05:38:09;;;;;;;18.63;8.80;;;11.70;99.90;;;;;;4996065;28;20544;-63
2021/04/01 05:40:36;;;;;;;11.43;8.47;;;11.70;99.90;;;;;;4996204;28;20484;-63
2021/04/01 05:43:07;;;;;;;9.93;8.03;;;11.80;99.90;;;;;;4995934;28;20458;-63
2021/04/01 05:45:41;;;;;;;9.77;8.17;;;11.80;99.90;;;;;;4996402;28;20450;-63
2021/04/01 05:48:16;;;;;;;12.57;9.33;;;11.90;99.90;;;;;;4995879;28;20496;-63
2021/04/01 05:50:55;;;;;;;13.40;7.77;;;11.90;99.90;;;;;;4996222;28;20468;-63
2021/04/01 05:56:49;;;;;;;10.97;7.90;;;12.10;99.90;;;;;;4995646;28;20777;-63
2021/04/01 05:59:25;;;;;;;11.50;7.73;;;12.20;99.90;;;;;;4995068;28;20465;-63
2021/04/01 06:04:48;;;;;;;12.27;7.60;;;12.30;99.90;;;;;;4995088;28;20485;-62
2021/04/01 06:07:19;;;;;;;16.30;8.07;;;12.70;99.90;;;;;;4995535;28;20438;-62
2021/04/01 06:09:49;;;;;;;8.77;7.60;;;13.00;99.90;;;;;;4995026;28;20492;-63
2021/04/01 06:12:16;;;;;;;10.90;8.50;;;13.40;99.90;;;;;;4995370;28;20457;-62
2021/04/01 06:15:02;;;;;;;15.13;8.93;;;13.80;99.90;;;;;;4994741;28;20772;-62
2021/04/01 06:17:30;;;;;;;17.77;9.33;;;14.30;99.90;;;;;;4995469;28;20444;-64
2021/04/01 06:19:58;;;;;;;12.90;8.33;;;14.90;99.90;;;;;;4995332;28;20488;-64
2021/04/01 06:22:26;;;;;;;13.97;9.60;;;15.50;99.90;;;;;;4995369;28;20450;-64
2021/04/01 06:24:54;;;;;;;13.70;9.20;;;16.00;97.20;;;;;;4994782;28;20453;-64
2021/04/01 06:27:25;;;;;;;13.93;8.97;;;16.30;95.70;;;;;;4995009;28;20848;-62
2021/04/01 06:30:15;;;;;;;15.83;9.10;;;16.30;95.20;;;;;;4995639;28;20485;-62
2021/04/01 06:32:43;;;;;;;11.87;9.33;;;16.20;94.70;;;;;;4995822;28;20492;-62
2021/04/01 06:35:12;;;;;;;12.77;8.90;;;16.10;94.90;;;;;;4994931;28;20904;-63
2021/04/01 06:37:56;;;;;;;22.17;9.57;;;15.80;94.60;;;;;;4994937;28;20567;-63
2021/04/01 06:40:23;;;;;;;15.80;10.53;;;15.50;95.80;;;;;;4995023;28;20460;-63
2021/04/01 06:42:54;;;;;;;14.67;9.47;;;15.60;96.50;;;;;;4995026;28;20453;-63
2021/04/01 06:45:24;;;;;;;12.23;10.00;;;15.60;96.60;;;;;;4995312;28;20427;-63
2021/04/01 06:47:52;;;;;;;12.50;9.37;;;15.30;96.70;;;;;;4994722;28;20909;-62
2021/04/01 06:50:23;;;;;;;17.07;10.13;;;15.30;96.80;;;;;;4997949;28;20486;-63
2021/04/01 06:52:56;;;;;;;22.20;10.23;;;15.30;97.10;;;;;;4997193;28;20466;-62
2021/04/01 06:55:25;;;;;;;19.33;9.33;;;15.80;96.60;;;;;;4994250;28;20967;-63
2021/04/01 06:58:06;;;;;;;15.83;10.00;;;16.30;95.60;;;;;;4994991;28;20493;-63
2021/04/01 07:00:41;;;;;;;16.00;9.27;;;16.60;95.70;;;;;;4994720;28;20445;-63
2021/04/01 07:03:12;;;;;;;13.27;9.50;;;17.40;94.20;;;;;;4994967;28;20798;-63
2021/04/01 07:05:51;;;;;;;12.17;9.67;;;18.20;92.50;;;;;;4994617;28;20442;-63
2021/04/01 07:08:23;;;;;;;10.03;8.20;;;18.80;90.00;;;;;;4994311;28;20508;-64
2021/04/01 07:10:53;;;;;;;14.10;9.87;;;19.20;88.70;;;;;;4995144;28;20466;-62
2021/04/01 07:13:26;;;;;;;14.23;9.70;;;19.20;86.00;;;;;;4994361;28;20458;-63
2021/04/01 07:15:56;;;;;;;16.60;9.43;;;19.70;83.70;;;;;;4994594;28;20449;-63
2021/04/01 07:18:31;;;;;;;11.40;9.43;;;20.10;82.30;;;;;;4994729;28;20540;-62
2021/04/01 07:46:41;;;;;;;12.73;10.17;;;24.10;65.20;;;;;;4994361;28;20478;-64
2021/04/01 07:49:17;;;;;;;14.80;8.67;;;24.40;62.50;;;;;;4994115;28;20473;-64
2021/04/01 07:51:58;;;;;;;15.90;11.30;;;24.60;61.30;;;;;;4994210;28;20455;-65
2021/04/01 07:54:26;;;;;;;13.67;9.30;;;25.10;58.00;;;;;;4994588;28;20442;-64
2021/04/01 07:57:08;;;;;;;12.73;9.03;;;25.30;57.20;;;;;;4994375;28;20458;-64
2021/04/01 07:59:47;;;;;;;19.80;9.60;;;25.10;57.70;;;;;;4993936;28;20473;-64
2021/04/01 08:02:45;;;;;;;14.17;9.07;;;24.80;58.10;;;;;;4994793;28;20442;-64
2021/04/01 08:05:14;;;;;;;14.23;9.20;;;24.50;58.20;;;;;;4995285;28;20441;-64
2021/04/01 08:07:49;;;;;;;10.60;9.40;;;24.30;59.00;;;;;;4995040;28;20449;-64
2021/04/01 08:10:18;;;;;;;14.57;8.67;;;24.10;58.40;;;;;;4993960;28;20485;-64
2021/04/01 08:12:50;;;;;;;15.00;8.47;;;24.40;59.10;;;;;;4994091;28;20507;-64
2021/04/01 08:15:20;;;;;;;11.53;9.33;;;25.20;58.90;;;;;;4994280;28;20461;-64
2021/04/01 08:17:53;;;;;;;12.27;8.90;;;25.90;57.60;;;;;;4993984;28;20542;-64
2021/04/01 08:20:21;;;;;;;11.97;8.80;;;26.40;56.20;;;;;;4993875;28;21005;-64
2021/04/01 08:23:00;;;;;;;13.93;8.17;;;27.30;55.90;;;;;;4994881;28;20814;-64
2021/04/01 08:25:32;;;;;;;14.30;8.30;;;28.10;54.00;;;;;;4993849;28;20524;-64
2021/04/01 08:28:20;;;;;;;9.50;7.97;;;28.10;54.50;;;;;;4994027;28;20437;-64
2021/04/01 08:34:11;;;;;;;11.90;8.73;;;27.90;52.80;;;;;;4994006;28;20489;-64
2021/04/01 08:36:44;;;;;;;8.67;7.83;;;28.60;53.10;;;;;;4995100;28;20842;-65
2021/04/01 08:39:13;;;;;;;9.07;7.70;;;28.80;51.60;;;;;;4997403;28;20473;-64
2021/04/01 08:42:08;;;;;;;9.10;8.00;;;28.70;51.10;;;;;;4997220;28;20452;-65
2021/04/01 08:45:02;;;;;;;11.13;8.00;;;27.50;52.20;;;;;;4997140;28;20453;-65
2021/04/01 08:47:35;;;;;;;11.93;7.80;;;27.60;53.80;;;;;;4997563;28;20457;-64
2021/04/01 08:50:27;;;;;;;10.37;8.47;;;26.90;51.40;;;;;;4997298;28;20485;-64
2021/04/01 08:53:23;;;;;;;8.67;7.60;;;26.80;54.20;;;;;;4997107;28;20458;-65
2021/04/01 08:55:56;;;;;;;12.00;8.40;;;27.60;52.20;;;;;;4997753;28;20438;-64
2021/04/01 08:58:34;;;;;;;11.80;8.13;;;26.60;51.80;;;;;;4998069;28;20831;-64
2021/04/01 09:01:14;;;;;;;9.10;7.40;;;26.80;53.00;;;;;;4999018;28;20441;-64
2021/04/01 09:03:42;;;;;;;16.30;8.60;;;27.30;52.10;;;;;;4997637;28;20438;-65
2021/04/01 09:06:10;;;;;;;16.30;7.40;;;27.70;52.70;;;;;;4997163;28;20784;-65
2021/04/01 09:08:42;;;;;;;15.43;8.13;;;27.20;52.10;;;;;;4997125;28;20489;-64
2021/04/01 09:11:10;;;;;;;13.50;7.90;;;27.50;53.80;;;;;;4997344;28;21006;-66
2021/04/01 09:13:39;;;;;;;15.13;7.20;;;27.30;51.40;;;;;;4997423;28;20464;-65
2021/04/01 09:16:18;;;;;;;11.03;7.20;;;27.10;52.30;;;;;;5000545;28;20453;-64
2021/04/01 09:18:46;;;;;;;10.00;7.40;;;27.20;53.80;;;;;;4997007;28;20556;-64
2021/04/01 09:21:14;;;;;;;13.77;7.80;;;26.80;54.20;;;;;;4999409;28;20461;-64
2021/04/01 09:23:42;;;;;;;8.83;6.47;;;26.30;54.50;;;;;;5000977;28;20458;-64
2021/04/01 09:26:12;;;;;;;10.50;6.87;;;27.10;54.40;;;;;;5001058;28;20465;-64
2021/04/01 09:28:41;;;;;;;8.50;6.33;;;27.30;54.90;;;;;;4999722;28;20469;-65
2021/04/01 09:31:09;;;;;;;12.23;6.20;;;28.10;53.40;;;;;;4998559;28;20568;-65
2021/04/01 09:33:37;;;;;;;11.30;5.90;;;28.70;50.60;;;;;;4996966;28;20630;-64
2021/04/01 09:36:14;;;;;;;5.17;4.77;;;28.90;50.30;;;;;;4996758;28;20453;-64
2021/04/01 09:38:43;;;;;;;5.10;4.60;;;29.50;49.70;;;;;;4997536;28;20908;-65
2021/04/01 09:41:24;;;;;;;6.20;4.90;;;29.60;49.80;;;;;;4999886;28;20540;-65
2021/04/01 09:43:51;;;;;;;6.60;4.50;;;30.40;49.30;;;;;;4997793;28;20864;-65
2021/04/01 09:46:20;;;;;;;6.40;4.50;;;31.30;49.20;;;;;;5000594;28;20813;-65
2021/04/01 09:48:52;;;;;;;10.20;5.17;;;32.10;46.80;;;;;;4995647;28;20469;-64
2021/04/01 09:51:20;;;;;;;8.20;4.80;;;32.30;47.90;;;;;;4996459;28;20466;-65
2021/04/01 09:53:52;;;;;;;4.73;3.83;;;33.00;45.60;;;;;;4996854;28;20461;-65
2021/04/01 09:56:23;;;;;;;4.20;3.80;;;33.50;44.80;;;;;;4997543;28;20452;-65
2021/04/01 09:58:51;;;;;;;5.40;4.03;;;33.30;41.80;;;;;;4997480;28;20883;-66
2021/04/01 10:01:28;;;;;;;4.20;3.80;;;34.40;44.30;;;;;;4996616;28;20453;-65
2021/04/01 10:04:05;;;;;;;8.00;4.50;;;35.00;42.50;;;;;;4996248;28;20496;-65
2021/04/01 10:06:36;;;;;;;5.20;4.00;;;34.50;40.50;;;;;;4996247;28;20441;-65
2021/04/01 10:09:08;;;;;;;7.50;4.60;;;34.40;42.20;;;;;;4996159;28;20612;-65
2021/04/01 10:11:39;;;;;;;4.90;4.40;;;34.40;41.40;;;;;;4996137;28;20537;-65
2021/04/01 10:14:07;;;;;;;4.40;4.00;;;34.00;41.40;;;;;;4996125;28;20442;-65
2021/04/01 10:16:35;;;;;;;6.20;4.40;;;34.00;41.30;;;;;;4996142;28;20453;-65
2021/04/01 10:19:02;;;;;;;5.37;4.87;;;33.50;42.30;;;;;;4996266;28;20473;-66
2021/04/01 10:21:29;;;;;;;6.93;5.53;;;33.30;41.30;;;;;;5000536;28;20481;-65
2021/04/01 10:23:57;;;;;;;8.20;4.90;;;33.30;42.00;;;;;;5002808;28;20453;-65
2021/04/01 10:26:31;;;;;;;4.60;4.20;;;33.00;41.70;;;;;;5002608;28;20460;-65
2021/04/01 10:29:02;;;;;;;5.87;5.33;;;33.10;43.80;;;;;;4998505;28;20477;-65
2021/04/01 10:31:30;;;;;;;7.53;5.03;;;33.30;41.40;;;;;;4997204;28;20556;-65
2021/04/01 10:34:09;;;;;;;6.13;5.00;;;33.40;40.00;;;;;;4997215;28;20461;-65
2021/04/01 10:36:40;;;;;;;7.03;4.97;;;33.40;43.60;;;;;;4995694;28;20442;-65
2021/04/01 10:39:09;;;;;;;9.37;4.70;;;33.40;42.90;;;;;;4995635;28;20478;-65
2021/04/01 10:41:49;;;;;;;9.20;4.50;;;33.10;43.20;;;;;;4995599;28;20849;-65
2021/04/01 10:44:18;;;;;;;5.50;4.40;;;32.70;41.00;;;;;;4995960;28;20450;-65
2021/04/01 10:46:49;;;;;;;13.63;4.80;;;32.50;42.40;;;;;;4995478;28;20458;-65
2021/04/01 10:49:19;;;;;;;5.83;4.10;;;32.20;44.50;;;;;;4995823;28;20528;-65
2021/04/01 10:51:50;;;;;;;8.73;3.83;;;32.20;44.90;;;;;;4996299;28;20493;-65
2021/04/01 10:54:17;;;;;;;7.23;4.20;;;32.00;43.60;;;;;;4996740;28;20523;-65
2021/04/01 10:56:53;;;;;;;7.30;3.70;;;32.00;43.60;;;;;;4996367;28;20450;-65
2021/04/01 10:59:37;;;;;;;5.27;3.83;;;32.20;44.40;;;;;;4996113;28;20473;-64
2021/04/01 11:02:11;;;;;;;6.80;3.60;;;32.30;42.80;;;;;;4994892;28;20472;-64
2021/04/01 11:04:40;;;;;;;7.90;3.50;;;32.00;43.50;;;;;;4995069;28;20931;-65
2021/04/01 11:07:07;;;;;;;5.33;3.77;;;31.80;46.30;;;;;;4995444;28;20462;-65
2021/04/01 11:09:34;;;;;;;8.13;4.60;;;31.00;43.10;;;;;;4994815;28;20852;-65
2021/04/01 11:14:48;;;;;;;5.90;3.80;;;31.20;42.80;;;;;;4994974;28;20464;-65
2021/04/01 11:17:16;;;;;;;6.27;3.70;;;31.00;44.10;;;;;;4995154;28;20457;-64
2021/04/01 11:19:45;;;;;;;4.77;3.40;;;31.30;44.20;;;;;;4994830;28;20466;-64
2021/04/01 11:22:12;;;;;;;5.20;4.03;;;31.10;46.90;;;;;;4995690;28;20450;-65
2021/04/01 11:24:39;;;;;;;6.00;4.10;;;31.00;48.00;;;;;;4997132;28;20453;-64
2021/04/01 11:27:07;;;;;;;5.10;3.63;;;30.50;46.00;;;;;;5000413;28;20464;-65
2021/04/01 11:29:34;;;;;;;6.77;3.80;;;29.80;44.20;;;;;;4998822;28;20469;-65
2021/04/01 11:32:19;;;;;;;3.93;3.47;;;30.10;45.60;;;;;;4997206;28;20484;-65
2021/04/01 11:34:46;;;;;;;12.83;4.57;;;29.80;45.60;;;;;;4998918;28;20446;-64
2021/04/01 11:37:17;;;;;;;5.90;3.97;;;29.30;47.30;;;;;;4999188;28;20450;-64
2021/04/01 11:39:44;;;;;;;6.27;4.60;;;29.00;48.00;;;;;;5000167;28;20894;-64
2021/04/01 11:42:13;;;;;;;4.63;3.70;;;28.80;48.20;;;;;;4995044;28;20509;-64
2021/04/01 11:44:40;;;;;;;4.10;3.80;;;29.20;49.30;;;;;;4994838;28;21002;-65
2021/04/01 11:47:30;;;;;;;5.77;3.43;;;29.30;48.40;;;;;;4994403;28;20940;-64
2021/04/01 11:49:56;;;;;;;3.70;3.37;;;29.40;47.10;;;;;;4990271;28;20478;-64
2021/04/01 11:52:24;;;;;;;3.73;3.07;;;29.20;46.30;;;;;;4994399;28;20816;-64
2021/04/01 11:54:52;;;;;;;6.83;3.40;;;29.00;46.90;;;;;;4995247;28;20467;-64
2021/04/01 11:57:22;;;;;;;4.30;2.80;;;28.70;48.80;;;;;;4996228;28;20453;-64
2021/04/01 11:59:54;;;;;;;5.20;3.00;;;28.90;46.10;;;;;;4995818;28;20528;-64
2021/04/01 12:02:23;;;;;;;10.50;3.07;;;29.00;48.20;;;;;;4993785;28;20532;-64
2021/04/01 12:04:52;;;;;;;5.30;3.50;;;28.70;46.30;;;;;;4994380;28;20489;-63
2021/04/01 12:07:19;;;;;;;9.53;3.33;;;28.80;48.10;;;;;;4994600;28;20464;-64
2021/04/01 12:09:50;;;;;;;4.70;3.40;;;28.70;46.50;;;;;;4993993;28;20485;-64
2021/04/01 12:12:31;;;;;;;8.97;4.07;;;28.90;48.70;;;;;;4996334;28;20548;-64
2021/04/01 12:14:57;;;;;;;7.93;3.40;;;29.10;48.20;;;;;;4998087;28;20438;-64
2021/04/01 12:17:35;;;;;;;3.73;3.33;;;28.80;47.60;;;;;;4997378;28;20504;-64
2021/04/01 12:20:04;;;;;;;6.70;3.93;;;28.30;48.60;;;;;;4998024;28;20477;-65
2021/04/01 12:22:37;;;;;;;5.83;3.77;;;28.40;49.30;;;;;;4997763;28;20457;-65
2021/04/01 12:25:07;;;;;;;5.23;3.13;;;28.60;48.90;;;;;;4998479;28;20442;-65
2021/04/01 12:27:34;;;;;;;6.90;3.40;;;28.90;48.40;;;;;;4997469;28;20517;-64
2021/04/01 12:30:01;;;;;;;4.70;3.20;;;28.90;46.70;;;;;;4998022;28;20473;-65
2021/04/01 12:32:28;;;;;;;7.30;3.07;;;28.90;49.20;;;;;;4997601;28;20453;-64
2021/04/01 12:35:10;;;;;;;3.90;3.60;;;29.20;47.90;;;;;;4997804;28;20858;-64
2021/04/01 12:37:38;;;;;;;6.83;3.20;;;29.10;49.10;;;;;;4997664;28;20967;-64
2021/04/01 12:40:12;;;;;;;4.00;3.60;;;29.20;47.40;;;;;;4997649;28;20477;-65
2021/04/01 12:42:39;;;;;;;6.17;3.80;;;29.30;48.10;;;;;;4998099;28;20787;-64
2021/04/01 12:45:23;;;;;;;6.97;3.47;;;29.30;47.50;;;;;;4997119;28;20818;-62
2021/04/01 12:47:52;;;;;;;9.13;3.50;;;29.30;47.60;;;;;;4997915;28;20441;-62
2021/04/01 12:50:19;;;;;;;5.03;3.50;;;28.80;47.80;;;;;;4997044;28;20482;-62
2021/04/01 12:52:52;;;;;;;8.50;3.30;;;28.70;48.70;;;;;;4997174;28;20485;-62
2021/04/01 12:55:34;;;;;;;8.57;3.80;;;28.50;47.30;;;;;;4997479;28;20442;-62
2021/04/01 12:58:01;;;;;;;5.03;3.07;;;28.50;47.40;;;;;;4997627;28;20449;-62
2021/04/01 13:00:35;;;;;;;3.90;3.50;;;28.50;46.10;;;;;;4997424;28;20504;-63
2021/04/01 13:03:01;;;;;;;6.37;3.60;;;28.00;46.90;;;;;;4998442;28;20438;-63
2021/04/01 13:05:28;;;;;;;4.10;3.77;;;27.60;48.40;;;;;;4997990;28;20967;-62
2021/04/01 13:08:07;;;;;;;4.30;3.93;;;27.50;48.10;;;;;;5021907;23;20844;-67
2021/04/01 13:10:42;;;;;;;4.57;4.00;;;27.20;48.40;;;;;;5000044;28;20496;-69
2021/04/01 13:13:10;;;;;;;6.10;3.83;;;27.30;50.70;;;;;;4998723;28;20472;-69
2021/04/01 13:15:38;;;;;;;5.33;4.00;;;27.20;49.10;;;;;;4999430;28;20549;-68
2021/04/01 13:18:04;;;;;;;3.87;3.50;;;27.10;48.80;;;;;;4999287;28;20972;-69
2021/04/01 13:20:31;;;;;;;4.07;3.63;;;26.90;49.10;;;;;;4999428;28;20453;-67
2021/04/01 13:23:10;;;;;;;4.37;3.97;;;26.60;49.40;;;;;;4998303;28;20458;-67
2021/04/01 13:25:36;;;;;;;6.20;4.10;;;26.50;49.50;;;;;;4999072;28;20433;-67
2021/04/01 13:28:05;;;;;;;7.33;4.00;;;26.20;49.40;;;;;;4999292;28;20481;-68
2021/04/01 13:30:33;;;;;;;5.40;3.83;;;25.90;50.00;;;;;;4998947;28;20473;-68
2021/04/01 13:33:06;;;;;;;17.23;4.70;;;25.80;50.10;;;;;;4997980;28;20972;-68
2021/04/01 13:35:36;;;;;;;8.80;4.23;;;25.80;49.60;;;;;;4999724;28;20453;-69
2021/04/01 13:38:08;;;;;;;21.50;5.63;;;25.60;50.20;;;;;;4999823;28;20478;-69
2021/04/01 13:40:40;;;;;;;12.73;4.97;;;25.40;50.70;;;;;;5000248;28;20434;-70
2021/04/01 13:43:07;;;;;;;8.07;4.60;;;25.40;50.20;;;;;;4999197;28;20532;-69
2021/04/01 13:45:35;;;;;;;25.40;5.17;;;25.50;50.00;;;;;;4999815;28;20472;-70
2021/04/01 13:48:03;;;;;;;10.20;5.47;;;25.40;49.50;;;;;;4998658;28;20478;-68
2021/04/01 13:50:31;;;;;;;7.97;5.30;;;25.30;50.30;;;;;;4999014;28;20478;-68
2021/04/01 13:53:06;;;;;;;6.60;5.23;;;25.20;50.10;;;;;;4998443;28;20453;-68
2021/04/01 13:55:35;;;;;;;10.50;4.90;;;25.30;51.40;;;;;;4998952;28;20816;-67
2021/04/01 13:58:19;;;;;;;8.97;5.27;;;25.20;49.90;;;;;;4998992;28;20474;-68
2021/04/01 14:01:02;;;;;;;5.17;4.43;;;25.10;51.40;;;;;;5013065;28;20422;-68
2021/04/01 14:09:29;;;;;;;12.80;5.33;;;24.90;50.40;;;;;;4998119;28;20472;-69
2021/04/01 14:11:58;;;;;;;5.23;4.50;;;25.00;52.10;;;;;;4998537;28;20504;-68
2021/04/01 14:14:25;;;;;;;7.90;5.73;;;25.00;51.00;;;;;;4998820;28;20448;-67
2021/04/01 14:16:54;;;;;;;10.07;4.90;;;24.80;50.60;;;;;;4998223;28;20474;-67
2021/04/01 14:19:22;;;;;;;10.63;5.13;;;24.80;51.40;;;;;;4998372;28;20528;-68
2021/04/01 14:21:53;;;;;;;8.93;4.50;;;24.70;52.30;;;;;;4999679;28;20941;-67
2021/04/01 14:24:23;;;;;;;6.60;4.63;;;24.60;51.50;;;;;;4998240;28;20460;-68
2021/04/01 14:26:55;;;;;;;6.17;4.23;;;24.60;51.70;;;;;;4997784;28;20526;-72
2021/04/01 14:29:21;;;;;;;5.00;4.30;;;24.60;52.00;;;;;;4998736;28;20481;-71
2021/04/01 14:31:47;;;;;;;5.33;4.70;;;24.50;51.30;;;;;;4997918;28;20482;-73
2021/04/01 14:34:16;;;;;;;4.90;4.40;;;24.50;51.90;;;;;;4997975;28;20450;-72
2021/04/01 14:36:43;;;;;;;5.30;4.40;;;24.60;51.00;;;;;;4998156;28;20460;-72
2021/04/01 14:39:10;;;;;;;9.83;5.07;;;24.50;52.10;;;;;;4998202;28;20477;-72
2021/04/01 14:41:41;;;;;;;4.97;4.50;;;24.30;51.30;;;;;;4997847;28;20453;-73
2021/04/01 14:44:09;;;;;;;7.07;5.10;;;24.50;53.00;;;;;;4998380;28;20880;-73
2021/04/01 14:46:35;;;;;;;7.13;4.47;;;24.60;53.50;;;;;;4998663;28;20938;-73
2021/04/01 14:49:03;;;;;;;7.27;5.17;;;24.80;53.60;;;;;;4996482;28;20485;-72
2021/04/01 14:51:30;;;;;;;4.83;4.30;;;24.90;52.40;;;;;;4995508;28;20512;-73
2021/04/01 14:53:58;;;;;;;8.83;4.37;;;24.90;51.80;;;;;;4996161;28;20929;-73
2021/04/01 14:56:26;;;;;;;5.80;3.50;;;24.80;52.20;;;;;;4995285;28;20461;-73
2021/04/01 14:58:56;;;;;;;8.60;4.83;;;24.90;52.60;;;;;;4994970;28;20987;-72
2021/04/01 15:01:24;;;;;;;6.80;4.47;;;24.70;51.20;;;;;;4995540;28;20450;-72
2021/04/01 15:03:52;;;;;;;6.83;5.83;;;24.30;50.20;;;;;;4995388;28;20457;-71
2021/04/01 15:06:18;;;;;;;6.00;4.50;;;24.20;50.00;;;;;;4996140;28;20468;-72
2021/04/01 15:08:45;;;;;;;5.73;3.93;;;24.10;50.30;;;;;;4996465;28;20489;-73
2021/04/01 15:11:12;;;;;;;4.50;4.07;;;24.20;49.00;;;;;;4995269;28;20486;-74
2021/04/01 15:13:39;;;;;;;5.50;3.70;;;24.20;49.90;;;;;;4995690;28;20457;-73
2021/04/01 15:16:06;;;;;;;7.00;4.37;;;24.20;48.90;;;;;;4998194;28;20469;-74
2021/04/01 15:18:33;;;;;;;7.20;4.03;;;24.20;49.70;;;;;;4998631;28;20859;-74
2021/04/01 15:21:00;;;;;;;6.47;4.50;;;24.40;51.60;;;;;;4997295;28;20453;-73
2021/04/01 15:23:27;;;;;;;6.40;4.43;;;24.60;49.70;;;;;;4997229;28;20512;-74
2021/04/01 15:25:54;;;;;;;5.83;5.13;;;24.70;49.90;;;;;;4995662;28;20462;-75
2021/04/01 15:28:20;;;;;;;5.90;4.43;;;24.90;50.50;;;;;;4994985;28;20485;-74
2021/04/01 15:30:47;;;;;;;6.80;5.20;;;25.00;50.20;;;;;;4995360;28;20481;-74
2021/04/01 15:33:13;;;;;;;10.23;5.80;;;25.10;49.40;;;;;;4995471;28;20453;-74
2021/04/01 15:35:40;;;;;;;10.83;5.70;;;25.30;49.00;;;;;;4994721;28;20818;-74
2021/04/01 15:38:07;;;;;;;7.67;6.60;;;25.50;49.00;;;;;;4994986;28;20568;-74
2021/04/01 15:40:34;;;;;;;11.83;8.00;;;25.60;48.90;;;;;;4995196;28;20457;-74
2021/04/01 15:43:01;;;;;;;14.57;8.40;;;25.40;47.60;;;;;;4994537;28;20454;-74
2021/04/01 15:45:27;;;;;;;10.37;8.50;;;25.20;48.90;;;;;;4995574;28;20462;-73
2021/04/01 15:47:54;;;;;;;12.37;9.10;;;24.80;48.90;;;;;;4997983;28;20478;-76
2021/04/01 15:50:20;;;;;;;10.37;9.27;;;24.70;48.90;;;;;;4999168;28;20465;-74
2021/04/01 15:52:47;;;;;;;8.77;7.30;;;24.40;50.10;;;;;;4999132;28;20589;-74
2021/04/01 15:55:14;;;;;;;10.80;8.40;;;24.30;50.50;;;;;;5007403;28;20493;-73
2021/04/01 15:57:42;;;;;;;18.20;11.27;;;24.40;51.90;;;;;;5007541;28;20480;-71
2021/04/01 16:00:11;;;;;;;17.67;10.57;;;24.30;51.10;;;;;;5021693;28;20437;-70
2021/04/01 16:02:38;;;;;;;14.77;12.07;;;24.20;51.10;;;;;;5021851;28;20464;-71
2021/04/01 16:05:06;;;;;;;15.33;11.80;;;24.20;50.90;;;;;;5010823;28;20509;-72
2021/04/01 16:07:32;;;;;;;15.73;12.77;;;24.20;52.00;;;;;;5003533;28;20457;-72
2021/04/01 16:09:59;;;;;;;19.77;11.80;;;24.10;51.70;;;;;;5000165;28;20449;-73
2021/04/01 16:12:25;;;;;;;16.07;13.40;;;23.90;51.00;;;;;;4998896;28;20536;-74
2021/04/01 16:14:52;;;;;;;17.30;13.63;;;23.80;51.40;;;;;;4998512;28;20503;-74
2021/04/01 16:17:19;;;;;;;21.33;14.97;;;23.80;51.20;;;;;;4998158;28;20553;-74
2021/04/01 16:19:45;;;;;;;22.73;16.37;;;23.70;50.60;;;;;;4998142;28;20476;-73
2021/04/01 16:22:12;;;;;;;18.67;15.10;;;23.60;50.40;;;;;;4998028;28;20454;-73
2021/04/01 16:24:41;;;;;;;21.07;14.67;;;23.50;51.40;;;;;;4997977;28;20454;-70
2021/04/01 16:27:08;;;;;;;19.90;14.70;;;23.50;52.00;;;;;;4998158;28;20461;-70
2021/04/01 16:29:34;;;;;;;19.30;14.17;;;23.60;52.80;;;;;;4997773;28;20508;-69
2021/04/01 16:32:00;;;;;;;22.67;14.80;;;23.60;51.70;;;;;;4998033;28;20481;-69
2021/04/01 16:34:29;;;;;;;22.87;16.90;;;23.60;52.40;;;;;;4997653;28;20450;-70
2021/04/01 16:36:56;;;;;;;25.20;17.80;;;23.50;52.20;;;;;;4997389;28;20449;-69
2021/04/01 16:39:27;;;;;;;27.23;17.50;;;23.40;52.00;;;;;;4997449;28;20477;-73
2021/04/01 16:41:54;;;;;;;22.50;17.93;;;23.20;52.60;;;;;;4997699;28;20434;-73
2021/04/01 16:44:24;;;;;;;25.63;17.13;;;23.00;52.80;;;;;;4997566;28;20453;-73
2021/04/01 16:46:51;;;;;;;28.40;19.10;;;23.00;53.30;;;;;;4997695;28;20449;-74
2021/04/01 16:49:17;;;;;;;21.63;18.33;;;22.90;53.50;;;;;;4997445;28;20995;-73
2021/04/01 16:51:47;;;;;;;25.70;17.17;;;22.80;52.90;;;;;;5002451;28;20473;-73
2021/04/01 16:54:15;;;;;;;23.27;17.43;;;22.70;54.10;;;;;;5006959;28;20457;-73
2021/04/01 16:56:46;;;;;;;26.47;20.13;;;22.70;53.70;;;;;;5008820;28;20464;-73
2021/04/01 16:59:16;;;;;;;21.60;15.53;;;22.50;53.30;;;;;;5002143;28;20484;-73
2021/04/01 17:01:42;;;;;;;25.10;17.20;;;22.40;54.50;;;;;;4999251;28;20441;-69
2021/04/01 17:04:08;;;;;;;24.00;17.00;;;22.40;54.20;;;;;;4998759;28;20580;-72
2021/04/01 17:06:35;;;;;;;23.67;19.00;;;22.40;53.60;;;;;;4998667;28;20819;-76
2021/04/01 17:09:02;;;;;;;24.57;16.77;;;22.30;52.30;;;;;;4998515;28;20485;-73
2021/04/01 17:11:28;;;;;;;21.83;17.10;;;22.20;51.90;;;;;;4997810;28;20999;-74
2021/04/01 17:13:54;;;;;;;24.17;18.20;;;22.20;51.30;;;;;;4997642;28;20457;-73
2021/04/01 17:16:21;;;;;;;25.43;18.20;;;22.10;51.30;;;;;;4999186;28;20457;-73
2021/04/01 17:18:47;;;;;;;22.20;17.87;;;22.00;51.20;;;;;;4997989;28;20823;-75
2021/04/01 17:21:13;;;;;;;23.20;17.20;;;22.00;51.40;;;;;;4998065;28;20450;-74
2021/04/01 17:23:39;;;;;;;25.70;17.83;;;21.90;51.20;;;;;;4998072;28;20457;-75
2021/04/01 17:26:06;;;;;;;25.50;18.87;;;21.90;51.50;;;;;;4998291;28;20458;-76
2021/04/01 17:28:33;;;;;;;28.33;18.03;;;21.80;52.20;;;;;;5001587;28;20485;-73
2021/04/01 17:30:59;;;;;;;28.50;19.60;;;21.70;51.60;;;;;;5000863;28;20532;-75
2021/04/01 17:33:25;;;;;;;31.93;19.53;;;21.70;51.90;;;;;;4998142;28;20819;-75
2021/04/01 17:35:51;;;;;;;29.17;18.37;;;21.60;51.80;;;;;;4997757;28;20457;-74
2021/04/01 17:38:17;;;;;;;22.43;16.50;;;21.50;52.40;;;;;;4997568;28;20540;-74
2021/04/01 17:40:44;;;;;;;24.97;18.27;;;21.40;52.50;;;;;;4997321;28;20481;-74
2021/04/01 17:43:11;;;;;;;24.20;17.33;;;21.40;52.90;;;;;;4997256;28;20484;-73
2021/04/01 17:45:38;;;;;;;26.33;19.13;;;21.40;53.20;;;;;;4997120;28;20945;-73
2021/04/01 17:48:06;;;;;;;29.70;18.30;;;21.30;53.00;;;;;;4997443;28;20482;-72
2021/04/01 17:50:32;;;;;;;24.57;17.00;;;21.30;53.30;;;;;;4997406;28;20462;-73